Aviation Digital Data Service (ADDS)

Output produced by METARs form (1252 UTC 05 July 2015)
found at http://aviationweather.gov/adds/metars/
 
KISP 051123Z 0512/0612 30005KT P6SM FEW050 SCT250 
     FM051500 23007KT P6SM FEW060 
     FM051800 21009KT P6SM FEW060 
     FM060100 22005KT P6SM FEW060 
     FM060600 VRB03KT 3SM BR FEW006 SCT250